sensor_id;sensor_type;location;lat;lon;timestamp;temperature;humidity
38183;DHT22;23991;52.430;10.586;2023-06-14T00:00:20;19.70;44.60
38183;DHT22;23991;52.430;10.586;2023-06-14T00:02:46;19.70;44.80
38183;DHT22;23991;52.430;10.586;2023-06-14T00:05:11;19.70;44.80
38183;DHT22;23991;52.430;10.586;2023-06-14T00:07:39;19.70;44.90
38183;DHT22;23991;52.430;10.586;2023-06-14T00:10:09;19.60;45.00
38183;DHT22;23991;52.430;10.586;2023-06-14T00:12:35;19.60;45.10
38183;DHT22;23991;52.430;10.586;2023-06-14T00:15:02;19.50;45.40
38183;DHT22;23991;52.430;10.586;2023-06-14T00:17:28;19.50;45.40
38183;DHT22;23991;52.430;10.586;2023-06-14T00:19:56;19.40;45.30
38183;DHT22;23991;52.430;10.586;2023-06-14T00:22:22;19.40;45.60
38183;DHT22;23991;52.430;10.586;2023-06-14T00:24:53;19.30;45.70
38183;DHT22;23991;52.430;10.586;2023-06-14T00:27:18;19.30;45.70
38183;DHT22;23991;52.430;10.586;2023-06-14T00:29:44;19.30;45.90
38183;DHT22;23991;52.430;10.586;2023-06-14T00:32:10;19.30;45.80
38183;DHT22;23991;52.430;10.586;2023-06-14T00:34:35;19.30;45.90
38183;DHT22;23991;52.430;10.586;2023-06-14T00:37:01;19.20;45.90
38183;DHT22;23991;52.430;10.586;2023-06-14T00:39:27;19.20;45.90
38183;DHT22;23991;52.430;10.586;2023-06-14T00:41:52;19.20;46.10
38183;DHT22;23991;52.430;10.586;2023-06-14T00:44:18;19.20;46.30
38183;DHT22;23991;52.430;10.586;2023-06-14T00:46:47;19.10;46.60
38183;DHT22;23991;52.430;10.586;2023-06-14T00:49:17;19.10;46.70
38183;DHT22;23991;52.430;10.586;2023-06-14T00:51:43;19.10;46.50
38183;DHT22;23991;52.430;10.586;2023-06-14T00:54:09;19.00;46.70
38183;DHT22;23991;52.430;10.586;2023-06-14T00:56:38;19.00;46.80
38183;DHT22;23991;52.430;10.586;2023-06-14T00:59:04;18.90;46.80
38183;DHT22;23991;52.430;10.586;2023-06-14T01:01:31;18.80;47.00
38183;DHT22;23991;52.430;10.586;2023-06-14T01:04:00;18.80;47.00
38183;DHT22;23991;52.430;10.586;2023-06-14T01:11:59;18.70;47.30
38183;DHT22;23991;52.430;10.586;2023-06-14T01:14:30;18.60;47.50
38183;DHT22;23991;52.430;10.586;2023-06-14T01:16:57;18.60;47.50
38183;DHT22;23991;52.430;10.586;2023-06-14T01:19:25;18.60;47.50
38183;DHT22;23991;52.430;10.586;2023-06-14T01:21:51;18.60;47.70
38183;DHT22;23991;52.430;10.586;2023-06-14T01:24:18;18.50;47.90
38183;DHT22;23991;52.430;10.586;2023-06-14T01:26:55;18.50;48.00
38183;DHT22;23991;52.430;10.586;2023-06-14T01:29:23;18.50;47.90
38183;DHT22;23991;52.430;10.586;2023-06-14T01:31:50;18.40;48.20
38183;DHT22;23991;52.430;10.586;2023-06-14T01:34:16;18.50;48.20
38183;DHT22;23991;52.430;10.586;2023-06-14T01:36:44;18.40;48.30
38183;DHT22;23991;52.430;10.586;2023-06-14T01:39:14;18.30;48.40
38183;DHT22;23991;52.430;10.586;2023-06-14T01:41:40;18.30;48.50
38183;DHT22;23991;52.430;10.586;2023-06-14T01:44:06;18.30;48.50
38183;DHT22;23991;52.430;10.586;2023-06-14T01:46:32;18.30;48.60
38183;DHT22;23991;52.430;10.586;2023-06-14T01:48:59;18.30;48.80
38183;DHT22;23991;52.430;10.586;2023-06-14T01:51:24;18.20;49.00
38183;DHT22;23991;52.430;10.586;2023-06-14T01:53:50;18.20;49.00
38183;DHT22;23991;52.430;10.586;2023-06-14T01:56:16;18.10;49.30
38183;DHT22;23991;52.430;10.586;2023-06-14T01:58:42;18.10;49.20
38183;DHT22;23991;52.430;10.586;2023-06-14T02:01:07;18.00;49.40
38183;DHT22;23991;52.430;10.586;2023-06-14T02:03:33;18.00;49.40
38183;DHT22;23991;52.430;10.586;2023-06-14T02:05:59;18.00;49.60
38183;DHT22;23991;52.430;10.586;2023-06-14T02:08:25;18.00;49.80
38183;DHT22;23991;52.430;10.586;2023-06-14T02:10:51;17.90;50.00
38183;DHT22;23991;52.430;10.586;2023-06-14T02:13:17;17.80;50.10
38183;DHT22;23991;52.430;10.586;2023-06-14T02:15:43;17.80;50.20
38183;DHT22;23991;52.430;10.586;2023-06-14T02:18:09;17.80;50.30
38183;DHT22;23991;52.430;10.586;2023-06-14T02:20:35;17.70;50.50
38183;DHT22;23991;52.430;10.586;2023-06-14T02:23:01;17.70;50.70
38183;DHT22;23991;52.430;10.586;2023-06-14T02:25:27;17.70;50.70
38183;DHT22;23991;52.430;10.586;2023-06-14T02:27:55;17.60;50.90
38183;DHT22;23991;52.430;10.586;2023-06-14T02:30:21;17.60;51.10
38183;DHT22;23991;52.430;10.586;2023-06-14T02:32:46;17.50;51.10
38183;DHT22;23991;52.430;10.586;2023-06-14T02:35:14;17.50;51.30
38183;DHT22;23991;52.430;10.586;2023-06-14T02:37:39;17.60;51.20
38183;DHT22;23991;52.430;10.586;2023-06-14T02:40:06;17.50;51.20
38183;DHT22;23991;52.430;10.586;2023-06-14T02:42:32;17.50;51.40
38183;DHT22;23991;52.430;10.586;2023-06-14T02:44:57;17.40;51.50
38183;DHT22;23991;52.430;10.586;2023-06-14T02:47:23;17.40;51.50
38183;DHT22;23991;52.430;10.586;2023-06-14T02:49:49;17.40;51.60
38183;DHT22;23991;52.430;10.586;2023-06-14T02:52:15;17.30;51.70
38183;DHT22;23991;52.430;10.586;2023-06-14T02:54:41;17.30;51.80
38183;DHT22;23991;52.430;10.586;2023-06-14T02:57:07;17.30;52.00
38183;DHT22;23991;52.430;10.586;2023-06-14T02:59:33;17.30;52.10
38183;DHT22;23991;52.430;10.586;2023-06-14T03:01:59;17.20;52.20
38183;DHT22;23991;52.430;10.586;2023-06-14T03:04:25;17.30;52.30
38183;DHT22;23991;52.430;10.586;2023-06-14T03:06:51;17.20;52.40
38183;DHT22;23991;52.430;10.586;2023-06-14T03:09:19;17.20;52.50
38183;DHT22;23991;52.430;10.586;2023-06-14T03:11:45;17.10;52.60
38183;DHT22;23991;52.430;10.586;2023-06-14T03:14:10;17.10;52.60
38183;DHT22;23991;52.430;10.586;2023-06-14T03:16:37;17.10;52.80
38183;DHT22;23991;52.430;10.586;2023-06-14T03:19:02;17.10;52.90
38183;DHT22;23991;52.430;10.586;2023-06-14T03:21:28;17.10;53.10
38183;DHT22;23991;52.430;10.586;2023-06-14T03:23:54;17.10;52.90
38183;DHT22;23991;52.430;10.586;2023-06-14T03:26:20;17.10;52.90
38183;DHT22;23991;52.430;10.586;2023-06-14T03:28:45;17.10;52.90
38183;DHT22;23991;52.430;10.586;2023-06-14T03:31:12;17.20;52.90
38183;DHT22;23991;52.430;10.586;2023-06-14T03:33:38;17.20;52.80
38183;DHT22;23991;52.430;10.586;2023-06-14T03:36:03;17.30;52.80
38183;DHT22;23991;52.430;10.586;2023-06-14T03:38:29;17.30;52.80
38183;DHT22;23991;52.430;10.586;2023-06-14T03:40:55;17.30;52.80
38183;DHT22;23991;52.430;10.586;2023-06-14T03:43:20;17.30;52.80
38183;DHT22;23991;52.430;10.586;2023-06-14T03:45:46;17.40;52.70
38183;DHT22;23991;52.430;10.586;2023-06-14T03:48:12;17.40;52.60
38183;DHT22;23991;52.430;10.586;2023-06-14T03:50:37;17.50;52.50
38183;DHT22;23991;52.430;10.586;2023-06-14T03:53:04;17.50;52.50
38183;DHT22;23991;52.430;10.586;2023-06-14T03:55:30;17.50;52.50
38183;DHT22;23991;52.430;10.586;2023-06-14T03:57:56;17.60;52.50
38183;DHT22;23991;52.430;10.586;2023-06-14T04:00:22;17.60;52.40
38183;DHT22;23991;52.430;10.586;2023-06-14T04:02:48;17.70;52.40
38183;DHT22;23991;52.430;10.586;2023-06-14T04:05:14;17.70;52.40
38183;DHT22;23991;52.430;10.586;2023-06-14T04:07:42;17.80;52.10
38183;DHT22;23991;52.430;10.586;2023-06-14T04:10:11;17.80;52.00
38183;DHT22;23991;52.430;10.586;2023-06-14T04:12:37;17.80;52.00
38183;DHT22;23991;52.430;10.586;2023-06-14T04:15:03;17.90;52.00
38183;DHT22;23991;52.430;10.586;2023-06-14T04:17:31;17.90;52.10
38183;DHT22;23991;52.430;10.586;2023-06-14T04:19:58;18.00;52.00
38183;DHT22;23991;52.430;10.586;2023-06-14T04:22:25;18.10;51.80
38183;DHT22;23991;52.430;10.586;2023-06-14T04:24:54;18.10;52.10
38183;DHT22;23991;52.430;10.586;2023-06-14T04:27:25;18.20;52.00
38183;DHT22;23991;52.430;10.586;2023-06-14T04:29:55;18.20;52.00
38183;DHT22;23991;52.430;10.586;2023-06-14T04:32:25;18.30;52.00
38183;DHT22;23991;52.430;10.586;2023-06-14T04:34:55;18.30;51.90
38183;DHT22;23991;52.430;10.586;2023-06-14T04:37:21;18.40;51.80
38183;DHT22;23991;52.430;10.586;2023-06-14T04:39:48;18.50;51.60
38183;DHT22;23991;52.430;10.586;2023-06-14T04:42:14;18.60;51.30
38183;DHT22;23991;52.430;10.586;2023-06-14T04:44:42;18.70;51.30
38183;DHT22;23991;52.430;10.586;2023-06-14T04:47:11;18.70;51.40
38183;DHT22;23991;52.430;10.586;2023-06-14T04:49:38;18.70;51.50
38183;DHT22;23991;52.430;10.586;2023-06-14T04:52:05;18.80;51.30
38183;DHT22;23991;52.430;10.586;2023-06-14T04:54:31;18.90;51.00
38183;DHT22;23991;52.430;10.586;2023-06-14T04:56:58;19.00;50.70
38183;DHT22;23991;52.430;10.586;2023-06-14T04:59:23;19.20;50.30
38183;DHT22;23991;52.430;10.586;2023-06-14T05:01:50;19.20;50.40
38183;DHT22;23991;52.430;10.586;2023-06-14T05:04:16;19.20;50.60
38183;DHT22;23991;52.430;10.586;2023-06-14T05:06:45;19.30;50.60
38183;DHT22;23991;52.430;10.586;2023-06-14T05:09:14;19.30;50.30
38183;DHT22;23991;52.430;10.586;2023-06-14T05:11:41;19.40;50.30
38183;DHT22;23991;52.430;10.586;2023-06-14T05:14:10;19.50;50.00
38183;DHT22;23991;52.430;10.586;2023-06-14T05:16:35;19.50;50.10
38183;DHT22;23991;52.430;10.586;2023-06-14T05:19:01;19.70;49.70
38183;DHT22;23991;52.430;10.586;2023-06-14T05:21:26;19.80;49.70
38183;DHT22;23991;52.430;10.586;2023-06-14T05:23:52;19.80;49.50
38183;DHT22;23991;52.430;10.586;2023-06-14T05:26:19;19.80;49.60
38183;DHT22;23991;52.430;10.586;2023-06-14T05:28:45;20.00;49.40
38183;DHT22;23991;52.430;10.586;2023-06-14T05:31:10;20.00;49.20
38183;DHT22;23991;52.430;10.586;2023-06-14T05:33:36;20.20;48.80
38183;DHT22;23991;52.430;10.586;2023-06-14T05:36:01;20.20;49.00
38183;DHT22;23991;52.430;10.586;2023-06-14T05:38:27;20.20;48.70
38183;DHT22;23991;52.430;10.586;2023-06-14T05:40:53;20.30;48.80
38183;DHT22;23991;52.430;10.586;2023-06-14T05:43:19;20.30;48.80
38183;DHT22;23991;52.430;10.586;2023-06-14T05:45:44;20.40;48.60
38183;DHT22;23991;52.430;10.586;2023-06-14T05:48:10;20.50;49.10
38183;DHT22;23991;52.430;10.586;2023-06-14T05:50:36;20.70;48.40
38183;DHT22;23991;52.430;10.586;2023-06-14T05:53:01;20.70;48.30
38183;DHT22;23991;52.430;10.586;2023-06-14T05:55:27;20.90;47.70
38183;DHT22;23991;52.430;10.586;2023-06-14T05:57:52;21.00;47.30
38183;DHT22;23991;52.430;10.586;2023-06-14T06:00:18;21.20;47.40
38183;DHT22;23991;52.430;10.586;2023-06-14T06:02:45;21.30;47.00
38183;DHT22;23991;52.430;10.586;2023-06-14T06:05:12;21.40;46.40
38183;DHT22;23991;52.430;10.586;2023-06-14T06:07:38;21.60;46.60
38183;DHT22;23991;52.430;10.586;2023-06-14T06:10:05;21.60;45.60
38183;DHT22;23991;52.430;10.586;2023-06-14T06:12:32;21.60;46.00
38183;DHT22;23991;52.430;10.586;2023-06-14T06:14:58;21.70;45.60
38183;DHT22;23991;52.430;10.586;2023-06-14T06:17:25;21.70;45.70
38183;DHT22;23991;52.430;10.586;2023-06-14T06:19:51;21.80;45.40
38183;DHT22;23991;52.430;10.586;2023-06-14T06:22:16;22.00;45.20
38183;DHT22;23991;52.430;10.586;2023-06-14T06:24:42;22.10;45.00
38183;DHT22;23991;52.430;10.586;2023-06-14T06:27:08;22.20;44.60
38183;DHT22;23991;52.430;10.586;2023-06-14T06:29:34;22.30;44.50
38183;DHT22;23991;52.430;10.586;2023-06-14T06:32:00;22.40;44.40
38183;DHT22;23991;52.430;10.586;2023-06-14T06:34:26;22.60;43.80
38183;DHT22;23991;52.430;10.586;2023-06-14T06:36:52;22.80;43.80
38183;DHT22;23991;52.430;10.586;2023-06-14T06:39:17;22.90;43.50
38183;DHT22;23991;52.430;10.586;2023-06-14T06:41:43;22.90;43.40
38183;DHT22;23991;52.430;10.586;2023-06-14T06:44:09;23.20;43.00
38183;DHT22;23991;52.430;10.586;2023-06-14T06:46:38;23.30;42.70
38183;DHT22;23991;52.430;10.586;2023-06-14T06:49:08;23.30;42.00
38183;DHT22;23991;52.430;10.586;2023-06-14T06:51:35;23.50;42.30
38183;DHT22;23991;52.430;10.586;2023-06-14T06:54:01;23.80;41.20
38183;DHT22;23991;52.430;10.586;2023-06-14T06:56:27;24.10;40.90
38183;DHT22;23991;52.430;10.586;2023-06-14T06:58:53;24.30;40.00
38183;DHT22;23991;52.430;10.586;2023-06-14T07:01:19;24.40;39.70
38183;DHT22;23991;52.430;10.586;2023-06-14T07:03:45;24.70;39.80
38183;DHT22;23991;52.430;10.586;2023-06-14T07:06:11;24.80;39.00
38183;DHT22;23991;52.430;10.586;2023-06-14T07:08:36;25.10;39.40
38183;DHT22;23991;52.430;10.586;2023-06-14T07:11:04;25.30;38.40
38183;DHT22;23991;52.430;10.586;2023-06-14T07:13:30;25.60;37.70
38183;DHT22;23991;52.430;10.586;2023-06-14T07:15:58;26.00;37.10
38183;DHT22;23991;52.430;10.586;2023-06-14T07:18:24;26.00;37.00
38183;DHT22;23991;52.430;10.586;2023-06-14T07:20:49;26.20;36.60
38183;DHT22;23991;52.430;10.586;2023-06-14T07:23:15;26.40;35.60
38183;DHT22;23991;52.430;10.586;2023-06-14T07:25:41;26.60;35.30
38183;DHT22;23991;52.430;10.586;2023-06-14T07:28:06;27.00;34.70
38183;DHT22;23991;52.430;10.586;2023-06-14T07:30:32;27.00;33.90
38183;DHT22;23991;52.430;10.586;2023-06-14T07:32:58;27.30;33.50
38183;DHT22;23991;52.430;10.586;2023-06-14T07:35:24;27.40;33.40
38183;DHT22;23991;52.430;10.586;2023-06-14T07:37:49;27.70;33.00
38183;DHT22;23991;52.430;10.586;2023-06-14T07:40:15;27.90;32.60
38183;DHT22;23991;52.430;10.586;2023-06-14T07:42:41;28.00;32.30
38183;DHT22;23991;52.430;10.586;2023-06-14T07:45:06;28.20;32.30
38183;DHT22;23991;52.430;10.586;2023-06-14T07:47:32;28.40;32.20
38183;DHT22;23991;52.430;10.586;2023-06-14T07:49:58;28.70;31.40
38183;DHT22;23991;52.430;10.586;2023-06-14T07:52:24;28.80;31.50
38183;DHT22;23991;52.430;10.586;2023-06-14T07:54:50;29.00;31.40
38183;DHT22;23991;52.430;10.586;2023-06-14T07:57:15;29.20;30.10
38183;DHT22;23991;52.430;10.586;2023-06-14T07:59:41;29.00;30.20
38183;DHT22;23991;52.430;10.586;2023-06-14T08:02:07;29.00;30.40
38183;DHT22;23991;52.430;10.586;2023-06-14T08:04:32;29.30;30.20
38183;DHT22;23991;52.430;10.586;2023-06-14T08:06:59;29.70;29.40
38183;DHT22;23991;52.430;10.586;2023-06-14T08:09:25;30.00;29.40
38183;DHT22;23991;52.430;10.586;2023-06-14T08:11:51;30.40;28.60
38183;DHT22;23991;52.430;10.586;2023-06-14T08:14:16;30.30;28.80
38183;DHT22;23991;52.430;10.586;2023-06-14T08:16:42;30.90;28.20
38183;DHT22;23991;52.430;10.586;2023-06-14T08:19:07;31.20;27.30
38183;DHT22;23991;52.430;10.586;2023-06-14T08:21:33;31.40;26.50
38183;DHT22;23991;52.430;10.586;2023-06-14T08:24:01;31.40;26.80
38183;DHT22;23991;52.430;10.586;2023-06-14T08:26:27;31.60;26.70
38183;DHT22;23991;52.430;10.586;2023-06-14T08:28:57;31.60;26.40
38183;DHT22;23991;52.430;10.586;2023-06-14T08:31:23;32.10;26.20
38183;DHT22;23991;52.430;10.586;2023-06-14T08:33:49;32.30;25.90
38183;DHT22;23991;52.430;10.586;2023-06-14T08:36:14;32.50;25.80
38183;DHT22;23991;52.430;10.586;2023-06-14T08:38:40;32.40;26.00
38183;DHT22;23991;52.430;10.586;2023-06-14T08:41:06;32.60;25.50
38183;DHT22;23991;52.430;10.586;2023-06-14T08:43:32;32.70;25.50
38183;DHT22;23991;52.430;10.586;2023-06-14T08:46:00;33.30;24.90
38183;DHT22;23991;52.430;10.586;2023-06-14T08:48:29;33.50;24.60
38183;DHT22;23991;52.430;10.586;2023-06-14T08:50:59;33.60;24.30
38183;DHT22;23991;52.430;10.586;2023-06-14T08:53:31;33.60;24.30
38183;DHT22;23991;52.430;10.586;2023-06-14T08:55:58;33.90;23.90
38183;DHT22;23991;52.430;10.586;2023-06-14T08:58:27;33.90;24.20
38183;DHT22;23991;52.430;10.586;2023-06-14T09:00:55;33.70;24.20
38183;DHT22;23991;52.430;10.586;2023-06-14T09:03:21;34.00;24.10
38183;DHT22;23991;52.430;10.586;2023-06-14T09:05:47;34.40;24.00
38183;DHT22;23991;52.430;10.586;2023-06-14T09:08:13;34.70;22.70
38183;DHT22;23991;52.430;10.586;2023-06-14T09:10:39;34.70;23.20
38183;DHT22;23991;52.430;10.586;2023-06-14T09:13:06;34.80;23.70
38183;DHT22;23991;52.430;10.586;2023-06-14T09:15:32;35.10;22.70
38183;DHT22;23991;52.430;10.586;2023-06-14T09:18:01;35.50;22.70
38183;DHT22;23991;52.430;10.586;2023-06-14T09:20:29;35.40;22.40
38183;DHT22;23991;52.430;10.586;2023-06-14T09:22:55;35.50;22.40
38183;DHT22;23991;52.430;10.586;2023-06-14T09:25:21;35.40;21.90
38183;DHT22;23991;52.430;10.586;2023-06-14T09:27:47;35.70;22.30
38183;DHT22;23991;52.430;10.586;2023-06-14T09:30:13;35.80;22.00
38183;DHT22;23991;52.430;10.586;2023-06-14T09:32:39;35.80;21.90
38183;DHT22;23991;52.430;10.586;2023-06-14T09:35:09;36.20;21.40
38183;DHT22;23991;52.430;10.586;2023-06-14T09:37:35;36.40;21.20
38183;DHT22;23991;52.430;10.586;2023-06-14T09:40:03;36.70;21.20
38183;DHT22;23991;52.430;10.586;2023-06-14T09:42:29;36.90;21.10
38183;DHT22;23991;52.430;10.586;2023-06-14T09:44:56;37.10;21.00
38183;DHT22;23991;52.430;10.586;2023-06-14T09:47:22;37.50;21.10
38183;DHT22;23991;52.430;10.586;2023-06-14T09:49:51;37.60;21.00
38183;DHT22;23991;52.430;10.586;2023-06-14T09:52:18;37.70;20.70
38183;DHT22;23991;52.430;10.586;2023-06-14T09:54:45;37.80;20.20
38183;DHT22;23991;52.430;10.586;2023-06-14T09:57:13;37.60;20.20
38183;DHT22;23991;52.430;10.586;2023-06-14T09:59:44;37.70;20.30
38183;DHT22;23991;52.430;10.586;2023-06-14T10:02:28;37.60;20.50
38183;DHT22;23991;52.430;10.586;2023-06-14T10:05:05;37.30;20.80
38183;DHT22;23991;52.430;10.586;2023-06-14T10:07:52;37.10;21.20
38183;DHT22;23991;52.430;10.586;2023-06-14T10:10:18;37.10;21.00
38183;DHT22;23991;52.430;10.586;2023-06-14T10:12:44;36.80;21.60
38183;DHT22;23991;52.430;10.586;2023-06-14T10:15:17;36.70;21.60
38183;DHT22;23991;52.430;10.586;2023-06-14T10:17:50;36.40;22.00
38183;DHT22;23991;52.430;10.586;2023-06-14T10:23:23;36.70;22.20
38183;DHT22;23991;52.430;10.586;2023-06-14T10:25:50;36.30;22.00
38183;DHT22;23991;52.430;10.586;2023-06-14T10:28:21;36.10;22.60
38183;DHT22;23991;52.430;10.586;2023-06-14T10:31:11;35.70;22.90
38183;DHT22;23991;52.430;10.586;2023-06-14T10:33:48;35.40;24.30
38183;DHT22;23991;52.430;10.586;2023-06-14T10:36:31;35.40;23.30
38183;DHT22;23991;52.430;10.586;2023-06-14T10:41:27;34.60;24.10
38183;DHT22;23991;52.430;10.586;2023-06-14T10:46:36;34.30;24.80
38183;DHT22;23991;52.430;10.586;2023-06-14T10:49:01;34.60;24.50
38183;DHT22;23991;52.430;10.586;2023-06-14T10:51:29;34.70;24.30
38183;DHT22;23991;52.430;10.586;2023-06-14T10:53:57;34.90;24.40
38183;DHT22;23991;52.430;10.586;2023-06-14T10:56:27;34.80;24.30
38183;DHT22;23991;52.430;10.586;2023-06-14T10:58:53;34.90;24.40
38183;DHT22;23991;52.430;10.586;2023-06-14T11:01:31;35.40;24.40
38183;DHT22;23991;52.430;10.586;2023-06-14T11:04:09;35.70;23.30
38183;DHT22;23991;52.430;10.586;2023-06-14T11:07:10;36.00;23.60
38183;DHT22;23991;52.430;10.586;2023-06-14T11:12:10;36.60;22.90
38183;DHT22;23991;52.430;10.586;2023-06-14T11:14:39;36.60;22.10
38183;DHT22;23991;52.430;10.586;2023-06-14T11:17:05;36.80;22.30
38183;DHT22;23991;52.430;10.586;2023-06-14T11:19:31;36.60;22.10
38183;DHT22;23991;52.430;10.586;2023-06-14T11:21:57;36.40;22.50
38183;DHT22;23991;52.430;10.586;2023-06-14T11:24:22;36.10;22.30
38183;DHT22;23991;52.430;10.586;2023-06-14T11:26:48;36.00;22.50
38183;DHT22;23991;52.430;10.586;2023-06-14T11:29:15;35.90;23.10
38183;DHT22;23991;52.430;10.586;2023-06-14T11:31:45;36.20;22.80
38183;DHT22;23991;52.430;10.586;2023-06-14T11:34:12;36.70;22.20
38183;DHT22;23991;52.430;10.586;2023-06-14T11:36:38;37.40;21.60
38183;DHT22;23991;52.430;10.586;2023-06-14T11:39:06;37.60;21.30
38183;DHT22;23991;52.430;10.586;2023-06-14T11:41:45;37.50;21.10
38183;DHT22;23991;52.430;10.586;2023-06-14T11:44:11;37.20;21.40
38183;DHT22;23991;52.430;10.586;2023-06-14T11:46:37;37.20;21.20
38183;DHT22;23991;52.430;10.586;2023-06-14T11:49:03;36.70;21.60
38183;DHT22;23991;52.430;10.586;2023-06-14T11:51:34;36.50;22.60
38183;DHT22;23991;52.430;10.586;2023-06-14T11:54:04;36.60;22.00
38183;DHT22;23991;52.430;10.586;2023-06-14T11:56:31;36.90;21.70
38183;DHT22;23991;52.430;10.586;2023-06-14T11:58:57;37.20;21.30
38183;DHT22;23991;52.430;10.586;2023-06-14T12:01:23;37.10;21.00
38183;DHT22;23991;52.430;10.586;2023-06-14T12:03:49;37.10;21.00
38183;DHT22;23991;52.430;10.586;2023-06-14T12:06:15;37.60;20.40
38183;DHT22;23991;52.430;10.586;2023-06-14T12:08:43;37.50;20.80
38183;DHT22;23991;52.430;10.586;2023-06-14T12:11:12;37.40;20.90
38183;DHT22;23991;52.430;10.586;2023-06-14T12:13:39;37.40;20.40
38183;DHT22;23991;52.430;10.586;2023-06-14T12:16:07;37.20;20.30
38183;DHT22;23991;52.430;10.586;2023-06-14T12:18:35;37.10;20.50
38183;DHT22;23991;52.430;10.586;2023-06-14T12:21:01;37.10;21.10
38183;DHT22;23991;52.430;10.586;2023-06-14T12:23:47;37.10;20.90
38183;DHT22;23991;52.430;10.586;2023-06-14T12:26:15;37.30;20.70
38183;DHT22;23991;52.430;10.586;2023-06-14T12:28:42;37.30;20.60
38183;DHT22;23991;52.430;10.586;2023-06-14T12:31:15;37.10;20.70
38183;DHT22;23991;52.430;10.586;2023-06-14T12:33:42;36.90;21.00
38183;DHT22;23991;52.430;10.586;2023-06-14T12:36:08;37.20;20.50
38183;DHT22;23991;52.430;10.586;2023-06-14T12:38:35;37.60;20.70
38183;DHT22;23991;52.430;10.586;2023-06-14T12:41:01;38.10;19.90
38183;DHT22;23991;52.430;10.586;2023-06-14T12:43:27;38.40;19.70
38183;DHT22;23991;52.430;10.586;2023-06-14T12:45:53;38.30;19.20
38183;DHT22;23991;52.430;10.586;2023-06-14T12:48:19;38.10;19.80
38183;DHT22;23991;52.430;10.586;2023-06-14T12:50:45;37.80;19.60
38183;DHT22;23991;52.430;10.586;2023-06-14T12:53:11;37.60;19.90
38183;DHT22;23991;52.430;10.586;2023-06-14T12:55:39;37.90;20.10
38183;DHT22;23991;52.430;10.586;2023-06-14T12:58:05;38.30;19.10
38183;DHT22;23991;52.430;10.586;2023-06-14T13:00:30;39.00;18.80
38183;DHT22;23991;52.430;10.586;2023-06-14T13:02:57;39.10;19.00
38183;DHT22;23991;52.430;10.586;2023-06-14T13:05:23;39.40;18.70
38183;DHT22;23991;52.430;10.586;2023-06-14T13:07:49;39.60;18.20
38183;DHT22;23991;52.430;10.586;2023-06-14T13:10:14;39.40;18.20
38183;DHT22;23991;52.430;10.586;2023-06-14T13:12:40;39.00;18.60
38183;DHT22;23991;52.430;10.586;2023-06-14T13:15:06;38.60;18.70
38183;DHT22;23991;52.430;10.586;2023-06-14T13:17:33;37.90;19.10
38183;DHT22;23991;52.430;10.586;2023-06-14T13:20:07;37.30;19.30
38183;DHT22;23991;52.430;10.586;2023-06-14T13:22:36;36.90;19.90
38183;DHT22;23991;52.430;10.586;2023-06-14T13:25:02;36.70;20.20
38183;DHT22;23991;52.430;10.586;2023-06-14T13:27:28;36.20;20.50
38183;DHT22;23991;52.430;10.586;2023-06-14T13:29:55;36.10;20.50
38183;DHT22;23991;52.430;10.586;2023-06-14T13:32:21;35.70;21.20
38183;DHT22;23991;52.430;10.586;2023-06-14T13:34:48;35.60;21.20
38183;DHT22;23991;52.430;10.586;2023-06-14T13:37:14;35.10;21.50
38183;DHT22;23991;52.430;10.586;2023-06-14T13:39:39;35.10;21.70
38183;DHT22;23991;52.430;10.586;2023-06-14T13:42:05;34.70;22.00
38183;DHT22;23991;52.430;10.586;2023-06-14T13:44:31;34.70;22.20
38183;DHT22;23991;52.430;10.586;2023-06-14T13:46:56;33.90;23.20
38183;DHT22;23991;52.430;10.586;2023-06-14T13:49:22;33.50;23.70
38183;DHT22;23991;52.430;10.586;2023-06-14T13:51:48;33.10;24.40
38183;DHT22;23991;52.430;10.586;2023-06-14T13:54:14;33.20;24.10
38183;DHT22;23991;52.430;10.586;2023-06-14T13:56:40;33.40;24.00
38183;DHT22;23991;52.430;10.586;2023-06-14T13:59:06;33.00;24.50
38183;DHT22;23991;52.430;10.586;2023-06-14T14:01:32;32.70;25.00
38183;DHT22;23991;52.430;10.586;2023-06-14T14:03:57;32.70;25.30
38183;DHT22;23991;52.430;10.586;2023-06-14T14:06:24;33.10;25.10
38183;DHT22;23991;52.430;10.586;2023-06-14T14:08:49;34.00;23.20
38183;DHT22;23991;52.430;10.586;2023-06-14T14:11:15;34.40;22.70
38183;DHT22;23991;52.430;10.586;2023-06-14T14:13:41;34.40;22.60
38183;DHT22;23991;52.430;10.586;2023-06-14T14:16:08;34.60;22.50
38183;DHT22;23991;52.430;10.586;2023-06-14T14:18:33;34.30;22.50
38183;DHT22;23991;52.430;10.586;2023-06-14T14:20:59;34.00;23.40
38183;DHT22;23991;52.430;10.586;2023-06-14T14:23:26;34.10;23.20
38183;DHT22;23991;52.430;10.586;2023-06-14T14:25:52;34.10;23.00
38183;DHT22;23991;52.430;10.586;2023-06-14T14:28:17;33.80;23.30
38183;DHT22;23991;52.430;10.586;2023-06-14T14:30:46;33.30;24.20
38183;DHT22;23991;52.430;10.586;2023-06-14T14:33:15;33.30;24.50
38183;DHT22;23991;52.430;10.586;2023-06-14T14:35:43;33.10;24.40
38183;DHT22;23991;52.430;10.586;2023-06-14T14:38:09;32.90;24.20
38183;DHT22;23991;52.430;10.586;2023-06-14T14:40:35;33.00;24.20
38183;DHT22;23991;52.430;10.586;2023-06-14T14:43:00;32.80;24.30
38183;DHT22;23991;52.430;10.586;2023-06-14T14:45:26;33.00;24.60
38183;DHT22;23991;52.430;10.586;2023-06-14T14:47:52;32.50;24.70
38183;DHT22;23991;52.430;10.586;2023-06-14T14:50:18;32.60;24.90
38183;DHT22;23991;52.430;10.586;2023-06-14T14:52:44;32.70;24.30
38183;DHT22;23991;52.430;10.586;2023-06-14T14:55:10;32.60;24.40
38183;DHT22;23991;52.430;10.586;2023-06-14T14:57:35;32.40;24.30
38183;DHT22;23991;52.430;10.586;2023-06-14T15:00:05;31.90;25.30
38183;DHT22;23991;52.430;10.586;2023-06-14T15:02:31;31.80;25.50
38183;DHT22;23991;52.430;10.586;2023-06-14T15:04:57;31.80;25.50
38183;DHT22;23991;52.430;10.586;2023-06-14T15:07:30;32.00;25.40
38183;DHT22;23991;52.430;10.586;2023-06-14T15:09:56;32.00;25.10
38183;DHT22;23991;52.430;10.586;2023-06-14T15:12:22;32.60;24.80
38183;DHT22;23991;52.430;10.586;2023-06-14T15:14:52;33.10;24.40
38183;DHT22;23991;52.430;10.586;2023-06-14T15:17:18;33.40;23.70
38183;DHT22;23991;52.430;10.586;2023-06-14T15:19:45;33.70;22.90
38183;DHT22;23991;52.430;10.586;2023-06-14T15:22:11;34.10;23.20
38183;DHT22;23991;52.430;10.586;2023-06-14T15:24:36;34.50;22.50
38183;DHT22;23991;52.430;10.586;2023-06-14T15:27:02;34.50;22.70
38183;DHT22;23991;52.430;10.586;2023-06-14T15:29:28;34.90;22.60